createdAt,value
2023-02-06T00:00:24.002Z,20.93
2023-02-06T00:02:26.733Z,20.27
2023-02-06T00:04:29.438Z,22.10
2023-02-06T00:06:32.608Z,20.40
2023-02-06T00:08:35.475Z,20.97
2023-02-06T00:10:38.259Z,22.57
2023-02-06T00:12:42.272Z,22.83
2023-02-06T00:14:45.452Z,21.73
2023-02-06T00:16:48.158Z,22.80
2023-02-06T00:18:50.888Z,23.23
2023-02-06T00:20:53.577Z,20.47
2023-02-06T00:22:56.559Z,22.00
2023-02-06T00:24:59.304Z,22.17
2023-02-06T00:27:02.019Z,23.07
2023-02-06T00:29:06.023Z,21.43
2023-02-06T00:31:09.360Z,25.70
2023-02-06T00:33:12.200Z,25.53
2023-02-06T00:35:14.915Z,25.67
2023-02-06T00:37:18.369Z,26.03
2023-02-06T00:39:21.557Z,25.10
2023-02-06T00:41:24.230Z,25.70
2023-02-06T00:43:27.000Z,27.23
2023-02-06T00:45:30.997Z,23.97
2023-02-06T00:47:34.997Z,24.33
2023-02-06T00:49:37.696Z,24.23
2023-02-06T00:51:40.379Z,24.73
2023-02-06T00:53:43.139Z,26.40
2023-02-06T00:55:46.217Z,25.90
2023-02-06T00:57:48.922Z,25.40
2023-02-06T00:59:52.666Z,25.17
2023-02-06T01:01:56.684Z,29.50
2023-02-06T01:03:59.811Z,26.80
2023-02-06T01:06:02.496Z,28.87
2023-02-06T01:08:05.487Z,31.03
2023-02-06T01:10:08.868Z,28.33
2023-02-06T01:12:11.900Z,28.93
2023-02-06T01:14:15.863Z,30.00
2023-02-06T01:16:19.916Z,29.07
2023-02-06T01:18:23.917Z,28.90
2023-02-06T01:20:27.129Z,28.40
2023-02-06T01:22:29.834Z,29.00
2023-02-06T01:24:32.572Z,31.13
2023-02-06T01:26:35.239Z,31.80
2023-02-06T01:28:39.451Z,30.80
2023-02-06T01:30:42.239Z,30.03
2023-02-06T01:32:45.042Z,29.90
2023-02-06T01:34:49.001Z,32.30
2023-02-06T01:36:51.997Z,29.93
2023-02-06T01:38:54.677Z,30.30
2023-02-06T01:40:57.532Z,33.77
2023-02-06T01:43:02.046Z,34.33
2023-02-06T01:45:28.503Z,30.50
2023-02-06T01:47:31.195Z,32.33
2023-02-06T01:49:36.651Z,33.40
2023-02-06T01:51:40.610Z,35.57
2023-02-06T01:53:43.287Z,34.20
2023-02-06T01:55:46.525Z,32.53
2023-02-06T01:57:49.713Z,35.20
2023-02-06T01:59:53.349Z,33.33
2023-02-06T02:01:56.038Z,34.73
2023-02-06T02:04:05.739Z,34.87
2023-02-06T02:06:09.870Z,32.60
2023-02-06T02:08:17.076Z,33.53
2023-02-06T02:10:19.834Z,36.10
2023-02-06T02:12:23.035Z,35.90
2023-02-06T02:14:25.717Z,36.77
2023-02-06T02:16:33.444Z,33.97
2023-02-06T02:18:44.130Z,35.43
2023-02-06T02:20:57.763Z,33.50
2023-02-06T02:23:06.422Z,35.97
2023-02-06T02:25:27.933Z,32.87
2023-02-06T02:27:40.468Z,33.50
2023-02-06T02:29:58.476Z,34.87
2023-02-06T02:32:16.795Z,36.10
2023-02-06T02:34:36.215Z,35.00
2023-02-06T02:36:39.436Z,37.00
2023-02-06T02:38:49.553Z,35.23
2023-02-06T02:40:54.951Z,37.10
2023-02-06T02:43:03.348Z,33.37
2023-02-06T02:45:09.826Z,32.83
2023-02-06T02:47:13.466Z,36.60
2023-02-06T02:49:18.272Z,34.10
2023-02-06T02:51:22.244Z,34.90
2023-02-06T02:53:25.083Z,36.57
2023-02-06T02:55:28.130Z,34.93
2023-02-06T02:57:31.141Z,34.40
2023-02-06T02:59:36.574Z,37.10
2023-02-06T03:01:41.824Z,36.30
2023-02-06T03:03:45.268Z,34.50
2023-02-06T03:05:54.506Z,34.10
2023-02-06T03:08:05.160Z,34.27
2023-02-06T03:10:12.689Z,36.73
2023-02-06T03:12:20.488Z,35.97
2023-02-06T03:14:27.121Z,34.63
2023-02-06T03:16:31.052Z,37.20
2023-02-06T03:18:35.968Z,34.43
2023-02-06T03:20:40.244Z,35.10
2023-02-06T03:22:43.215Z,35.10
2023-02-06T03:24:47.209Z,35.73
2023-02-06T03:26:50.186Z,37.20
2023-02-06T03:28:56.931Z,34.20
2023-02-06T03:30:59.876Z,34.90
2023-02-06T03:33:07.182Z,34.87
2023-02-06T03:35:12.402Z,36.10
2023-02-06T03:37:15.112Z,36.67
2023-02-06T03:39:17.777Z,35.57
2023-02-06T03:41:23.487Z,34.63
2023-02-06T03:43:26.683Z,35.70
2023-02-06T03:45:33.160Z,34.07
2023-02-06T03:47:35.925Z,33.33
2023-02-06T03:49:39.378Z,33.07
2023-02-06T03:51:44.436Z,35.97
2023-02-06T03:53:47.378Z,34.40
2023-02-06T03:55:50.484Z,32.83
2023-02-06T03:57:55.985Z,36.60
2023-02-06T03:59:59.158Z,33.50
2023-02-06T04:02:03.456Z,34.90
2023-02-06T04:04:06.208Z,35.10
2023-02-06T04:06:09.196Z,34.83
2023-02-06T04:08:12.337Z,30.30
2023-02-06T04:10:15.061Z,32.80
2023-02-06T04:12:18.161Z,32.23
2023-02-06T04:14:22.118Z,31.80
2023-02-06T04:16:25.269Z,33.40
2023-02-06T04:18:28.003Z,29.73
2023-02-06T04:20:30.776Z,33.33
2023-02-06T04:22:33.513Z,31.40
2023-02-06T04:24:36.795Z,36.57
2023-02-06T04:26:39.488Z,30.53
2023-02-06T04:28:43.326Z,30.50
2023-02-06T04:30:48.208Z,32.33
2023-02-06T04:32:51.377Z,30.33
2023-02-06T04:34:54.048Z,31.60
2023-02-06T04:36:56.897Z,33.60
2023-02-06T04:38:59.617Z,31.87
2023-02-06T04:41:04.356Z,33.60
2023-02-06T04:43:07.060Z,28.00
2023-02-06T04:45:10.309Z,31.80
2023-02-06T04:47:14.354Z,30.40
2023-02-06T04:49:17.598Z,32.17
2023-02-06T04:51:20.271Z,28.00
2023-02-06T04:53:25.804Z,31.80
2023-02-06T04:55:28.902Z,31.60
2023-02-06T04:57:32.054Z,27.93
2023-02-06T04:59:34.721Z,27.67
2023-02-06T05:01:37.478Z,28.60
2023-02-06T05:03:41.442Z,28.83
2023-02-06T05:05:44.541Z,30.30
2023-02-06T05:07:47.371Z,28.50
2023-02-06T05:09:50.048Z,27.70
2023-02-06T05:11:52.753Z,27.80
2023-02-06T05:13:55.910Z,25.47
2023-02-06T05:16:01.422Z,24.97
2023-02-06T05:18:04.177Z,24.77
2023-02-06T05:20:09.103Z,26.30
2023-02-06T05:22:12.245Z,24.67
2023-02-06T05:24:14.999Z,25.93
2023-02-06T05:26:17.738Z,25.67
2023-02-06T05:28:20.553Z,24.23
2023-02-06T05:30:23.868Z,26.40
2023-02-06T05:32:26.549Z,25.10
2023-02-06T05:34:29.254Z,24.63
2023-02-06T05:36:33.575Z,25.23
2023-02-06T05:38:36.315Z,22.37
2023-02-06T05:40:39.036Z,22.90
2023-02-06T05:42:41.749Z,24.13
2023-02-06T05:44:44.806Z,22.67
2023-02-06T05:46:48.637Z,24.53
2023-02-06T05:48:51.287Z,21.77
2023-02-06T05:50:53.972Z,24.27
2023-02-06T05:52:58.266Z,23.23
2023-02-06T05:55:00.908Z,22.37
2023-02-06T05:57:04.168Z,21.00
2023-02-06T05:59:06.817Z,21.33
2023-02-06T06:01:11.456Z,23.00
2023-02-06T06:03:14.160Z,20.30
2023-02-06T06:05:16.928Z,19.73
2023-02-06T06:07:19.678Z,21.10
2023-02-06T06:09:24.143Z,19.77
2023-02-06T06:11:26.941Z,20.10
2023-02-06T06:13:29.657Z,19.30
2023-02-06T06:15:32.376Z,19.67
2023-02-06T06:17:35.480Z,19.60
2023-02-06T06:19:38.155Z,19.40
2023-02-06T06:21:40.893Z,18.37
2023-02-06T06:23:43.635Z,19.10
2023-02-06T06:25:48.321Z,18.07
2023-02-06T06:27:51.129Z,18.37
2023-02-06T06:29:53.879Z,17.70
2023-02-06T06:31:56.764Z,17.67
2023-02-06T06:33:59.962Z,19.07
2023-02-06T06:36:02.671Z,16.23
2023-02-06T06:38:05.428Z,15.67
2023-02-06T06:40:09.130Z,16.97
2023-02-06T06:42:13.136Z,16.50
2023-02-06T06:44:15.815Z,16.83
2023-02-06T06:46:18.921Z,17.10
2023-02-06T06:48:22.303Z,15.30
2023-02-06T06:50:24.977Z,16.67
2023-02-06T06:52:27.664Z,16.20
2023-02-06T06:54:30.807Z,13.73
2023-02-06T06:56:33.531Z,15.37
2023-02-06T06:58:37.473Z,14.77
2023-02-06T07:00:40.726Z,15.40
2023-02-06T07:02:44.076Z,16.20
2023-02-06T07:04:46.905Z,13.93
2023-02-06T07:06:49.607Z,15.00
2023-02-06T07:08:52.281Z,13.93
2023-02-06T07:10:55.285Z,13.47
2023-02-06T07:12:57.976Z,14.30
2023-02-06T07:15:01.954Z,14.63
2023-02-06T07:17:04.993Z,14.37
2023-02-06T07:19:09.196Z,13.20
2023-02-06T07:21:14.162Z,13.53
2023-02-06T07:23:16.885Z,14.60
2023-02-06T07:25:20.311Z,13.20
2023-02-06T07:27:23.052Z,15.03
2023-02-06T07:29:25.845Z,11.90
2023-02-06T07:31:29.857Z,12.20
2023-02-06T07:33:32.931Z,12.13
2023-02-06T07:35:39.499Z,11.77
2023-02-06T07:37:42.315Z,13.00
2023-02-06T07:39:45.057Z,12.70
2023-02-06T07:41:49.864Z,12.37
2023-02-06T07:43:54.190Z,12.30
2023-02-06T07:45:59.746Z,13.60
2023-02-06T07:48:05.902Z,12.63
2023-02-06T07:50:09.216Z,11.50
2023-02-06T07:52:11.888Z,11.10
2023-02-06T07:54:14.605Z,12.37
2023-02-06T07:56:18.376Z,11.33
2023-02-06T07:58:21.487Z,11.23
2023-02-06T08:00:24.267Z,10.43
2023-02-06T08:02:26.927Z,11.03
2023-02-06T08:04:35.279Z,11.40
2023-02-06T08:06:38.643Z,10.93
2023-02-06T08:08:41.435Z,11.00
2023-02-06T08:10:44.120Z,9.60
2023-02-06T08:12:47.169Z,10.40
2023-02-06T08:14:49.883Z,10.73
2023-02-06T08:16:52.596Z,10.70
2023-02-06T08:18:55.314Z,9.50
2023-02-06T08:21:03.428Z,10.17
2023-02-06T08:23:08.045Z,10.30
2023-02-06T08:25:10.769Z,10.47
2023-02-06T08:27:13.492Z,9.47
2023-02-06T08:29:16.515Z,10.60
2023-02-06T08:31:20.678Z,9.27
2023-02-06T08:33:23.494Z,9.50
2023-02-06T08:35:26.192Z,9.27
2023-02-06T08:37:30.206Z,10.57
2023-02-06T08:39:32.901Z,10.57
2023-02-06T08:41:40.664Z,10.17
2023-02-06T08:43:46.596Z,9.20
2023-02-06T08:45:50.574Z,9.30
2023-02-06T08:47:53.229Z,10.13
2023-02-06T08:49:55.954Z,9.97
2023-02-06T08:51:59.020Z,9.23
2023-02-06T08:54:03.848Z,10.47
2023-02-06T08:56:08.014Z,10.37
2023-02-06T08:58:10.724Z,11.03
2023-02-06T09:00:14.817Z,10.27
2023-02-06T09:02:17.549Z,11.40
2023-02-06T09:04:20.327Z,9.60
2023-02-06T09:06:23.105Z,11.63
2023-02-06T09:08:26.367Z,10.03
2023-02-06T09:10:30.408Z,14.23
2023-02-06T09:12:33.198Z,10.27
2023-02-06T09:14:36.400Z,11.63
2023-02-06T09:16:39.053Z,11.57
2023-02-06T09:18:41.870Z,10.37
2023-02-06T09:20:46.065Z,11.00
2023-02-06T09:22:49.314Z,10.53
2023-02-06T09:24:52.064Z,11.33
2023-02-06T09:27:00.714Z,9.77
2023-02-06T09:29:07.823Z,15.70
2023-02-06T09:31:10.874Z,11.47
2023-02-06T09:33:13.684Z,11.67
2023-02-06T09:35:16.504Z,9.33
2023-02-06T09:37:19.280Z,11.93
2023-02-06T09:39:22.077Z,10.43
2023-02-06T09:41:29.905Z,10.10
2023-02-06T09:43:34.387Z,12.30
2023-02-06T09:45:37.331Z,9.77
2023-02-06T09:47:40.965Z,11.53
2023-02-06T09:49:45.404Z,14.07
2023-02-06T09:51:59.170Z,10.77
2023-02-06T09:54:05.954Z,9.87
2023-02-06T09:56:26.993Z,9.60
2023-02-06T09:58:38.096Z,10.00
2023-02-06T10:00:43.813Z,9.37
2023-02-06T10:02:57.622Z,9.23
2023-02-06T10:05:03.905Z,8.57
2023-02-06T10:07:15.823Z,9.50
2023-02-06T10:09:20.118Z,9.00
2023-02-06T10:11:26.712Z,7.77
2023-02-06T10:13:32.256Z,8.27
2023-02-06T10:15:38.128Z,8.30
2023-02-06T10:17:46.201Z,7.97
2023-02-06T10:19:52.127Z,8.37
2023-02-06T10:21:57.190Z,7.90
2023-02-06T10:24:03.522Z,8.77
2023-02-06T10:26:12.327Z,7.73
2023-02-06T10:28:22.757Z,7.50
2023-02-06T10:30:39.873Z,7.87
2023-02-06T10:32:47.487Z,7.83
2023-02-06T10:34:58.697Z,7.90
2023-02-06T10:37:15.874Z,7.70
2023-02-06T10:39:32.411Z,7.27
2023-02-06T10:41:37.462Z,7.90
2023-02-06T10:43:44.753Z,8.13
2023-02-06T10:45:51.780Z,7.90
2023-02-06T10:47:58.245Z,7.73
2023-02-06T10:50:03.735Z,7.80
2023-02-06T10:52:14.261Z,7.50
2023-02-06T10:54:19.202Z,7.87
2023-02-06T10:56:24.980Z,10.93
2023-02-06T10:58:30.153Z,8.10
2023-02-06T11:00:33.231Z,6.80
2023-02-06T11:02:42.634Z,6.80
2023-02-06T11:04:48.873Z,7.33
2023-02-06T11:07:02.414Z,8.70
2023-02-06T11:09:05.259Z,7.40
2023-02-06T11:11:18.896Z,6.80
2023-02-06T11:13:26.688Z,7.90
2023-02-06T11:15:33.078Z,7.37
2023-02-06T11:17:38.284Z,6.83
2023-02-06T11:19:44.253Z,8.13
2023-02-06T11:21:51.637Z,6.63
2023-02-06T11:24:08.669Z,8.13
2023-02-06T11:26:14.159Z,25.17
2023-02-06T11:28:19.276Z,8.10
2023-02-06T11:30:27.422Z,6.97
2023-02-06T11:32:52.750Z,6.77
2023-02-06T11:38:24.177Z,7.50
2023-02-06T11:40:28.233Z,7.57
2023-02-06T11:42:31.116Z,7.20
2023-02-06T11:44:39.081Z,15.47
2023-02-06T11:46:41.862Z,7.70
2023-02-06T11:48:45.391Z,7.50
2023-02-06T11:50:55.071Z,6.43
2023-02-06T11:53:00.756Z,6.60
2023-02-06T11:55:05.950Z,8.80
2023-02-06T11:57:19.720Z,6.47
2023-02-06T11:59:23.348Z,6.10
2023-02-06T12:01:26.411Z,7.43
2023-02-06T12:03:32.870Z,7.37
2023-02-06T12:05:37.496Z,7.77
2023-02-06T12:07:41.508Z,7.47
2023-02-06T12:09:44.482Z,7.40
2023-02-06T12:11:50.978Z,7.00
2023-02-06T12:13:55.898Z,9.83
2023-02-06T12:15:58.929Z,8.50
2023-02-06T12:18:03.040Z,7.87
2023-02-06T12:20:08.254Z,7.70
2023-02-06T12:22:14.786Z,10.43
2023-02-06T12:24:23.760Z,7.53
2023-02-06T12:26:29.574Z,8.63
2023-02-06T12:28:36.027Z,13.30
2023-02-06T12:30:40.801Z,8.67
2023-02-06T12:32:44.677Z,9.70
2023-02-06T12:34:53.871Z,9.13
2023-02-06T12:37:08.832Z,8.67
2023-02-06T12:39:17.602Z,9.00
2023-02-06T12:41:30.706Z,8.90
2023-02-06T12:43:35.099Z,9.13
2023-02-06T12:45:43.623Z,13.23
2023-02-06T12:47:49.378Z,8.37
2023-02-06T12:49:55.613Z,8.93
2023-02-06T12:52:01.877Z,9.07
2023-02-06T12:54:05.661Z,8.33
2023-02-06T12:56:22.154Z,10.90
2023-02-06T12:58:28.098Z,8.90
2023-02-06T13:00:42.412Z,10.00
2023-02-06T13:02:57.739Z,9.20
2023-02-06T13:05:05.723Z,10.13
2023-02-06T13:07:10.421Z,11.00
2023-02-06T13:09:18.262Z,10.50
2023-02-06T13:11:28.896Z,8.87
2023-02-06T13:13:33.021Z,10.03
2023-02-06T13:15:39.795Z,9.53
2023-02-06T13:17:51.678Z,12.10
2023-02-06T13:20:02.535Z,8.60
2023-02-06T13:22:35.230Z,9.03
2023-02-06T13:24:37.966Z,11.50
2023-02-06T13:27:02.913Z,10.20
2023-02-06T13:29:05.650Z,10.80
2023-02-06T13:31:23.367Z,11.60
2023-02-06T13:33:26.504Z,13.30
2023-02-06T13:35:30.651Z,12.10
2023-02-06T13:37:34.579Z,12.43
2023-02-06T13:39:37.567Z,15.00
2023-02-06T13:41:42.527Z,12.27
2023-02-06T13:43:46.950Z,14.37
2023-02-06T13:45:51.827Z,11.00
2023-02-06T13:48:11.432Z,12.83
2023-02-06T13:50:25.960Z,10.97
2023-02-06T13:52:31.821Z,10.40
2023-02-06T13:54:44.598Z,10.47
2023-02-06T13:56:56.172Z,10.90
2023-02-06T13:59:00.665Z,10.73
2023-02-06T14:01:03.726Z,10.20
2023-02-06T14:03:13.335Z,9.80
2023-02-06T14:05:18.210Z,12.00
2023-02-06T14:07:32.295Z,12.73
2023-02-06T14:09:51.600Z,9.20
2023-02-06T14:12:08.781Z,8.90
2023-02-06T14:14:28.276Z,8.80
2023-02-06T14:16:38.729Z,8.30
2023-02-06T14:18:45.521Z,8.00
2023-02-06T14:20:53.192Z,9.07
2023-02-06T14:23:03.956Z,9.40
2023-02-06T14:25:16.967Z,7.83
2023-02-06T14:27:28.650Z,7.03
2023-02-06T14:29:41.187Z,7.90
2023-02-06T14:31:54.818Z,7.37
2023-02-06T14:34:07.630Z,8.23
2023-02-06T14:36:18.973Z,7.03
2023-02-06T14:38:28.948Z,6.60
2023-02-06T14:40:34.635Z,7.70
2023-02-06T14:42:39.452Z,7.00
2023-02-06T14:44:42.595Z,7.57
2023-02-06T14:46:45.440Z,7.50
2023-02-06T14:48:50.017Z,6.33
2023-02-06T14:50:56.727Z,12.00
2023-02-06T14:53:00.447Z,7.67
2023-02-06T14:55:03.509Z,6.43
2023-02-06T14:57:09.337Z,6.67
2023-02-06T14:59:17.963Z,6.93
2023-02-06T15:01:22.576Z,6.83
2023-02-06T15:03:26.086Z,6.33
2023-02-06T15:05:29.214Z,6.90
2023-02-06T15:07:34.995Z,6.93
2023-02-06T15:09:38.966Z,6.37
2023-02-06T15:11:41.799Z,7.30
2023-02-06T15:13:51.695Z,5.80
2023-02-06T15:15:54.947Z,6.60
2023-02-06T15:17:59.192Z,6.13
2023-02-06T15:20:16.342Z,6.53
2023-02-06T15:22:25.211Z,5.20
2023-02-06T15:24:40.295Z,5.93
2023-02-06T15:26:46.273Z,5.60
2023-02-06T15:28:49.678Z,5.70
2023-02-06T15:30:54.239Z,6.40
2023-02-06T15:32:57.019Z,5.50
2023-02-06T15:35:00.382Z,5.70
2023-02-06T15:37:20.284Z,5.70
2023-02-06T15:39:23.636Z,4.73
2023-02-06T15:41:27.877Z,4.60
2023-02-06T15:43:30.589Z,4.90
2023-02-06T15:45:37.856Z,5.23
2023-02-06T15:47:41.236Z,5.10
2023-02-06T15:49:45.618Z,4.90
2023-02-06T15:51:53.562Z,5.17
2023-02-06T15:54:07.488Z,4.43
2023-02-06T15:56:17.487Z,4.50
2023-02-06T15:58:21.577Z,4.10
2023-02-06T16:00:26.026Z,4.53
2023-02-06T16:02:32.731Z,4.67
2023-02-06T16:04:36.321Z,3.83
2023-02-06T16:06:39.115Z,4.53
2023-02-06T16:08:41.872Z,3.97
2023-02-06T16:10:49.329Z,4.13
2023-02-06T16:12:52.426Z,3.83
2023-02-06T16:14:58.003Z,3.83
2023-02-06T16:17:02.110Z,3.57
2023-02-06T16:19:28.363Z,3.80
2023-02-06T16:21:32.530Z,3.83
2023-02-06T16:23:45.524Z,3.47
2023-02-06T16:25:48.558Z,4.00
2023-02-06T16:27:54.360Z,3.93
2023-02-06T16:29:58.710Z,3.20
2023-02-06T16:32:02.929Z,3.20
2023-02-06T16:34:20.988Z,3.27
2023-02-06T16:36:24.552Z,3.67
2023-02-06T16:38:27.665Z,3.17
2023-02-06T16:40:30.902Z,3.93
2023-02-06T16:42:35.319Z,3.77
2023-02-06T16:44:44.706Z,3.83
2023-02-06T16:46:49.689Z,3.23
2023-02-06T16:48:52.588Z,3.10
2023-02-06T16:50:55.758Z,2.93
2023-02-06T16:53:03.846Z,3.23
2023-02-06T16:55:07.111Z,3.20
2023-02-06T16:57:14.542Z,3.00
2023-02-06T16:59:17.682Z,3.07
2023-02-06T17:01:22.988Z,3.37
2023-02-06T17:03:27.073Z,3.17
2023-02-06T17:05:31.549Z,3.00
2023-02-06T17:07:35.076Z,2.80
2023-02-06T17:09:38.086Z,2.63
2023-02-06T17:11:40.821Z,3.00
2023-02-06T17:13:43.618Z,2.73
2023-02-06T17:15:47.490Z,2.43
2023-02-06T17:17:52.144Z,2.50
2023-02-06T17:19:57.346Z,2.53
2023-02-06T17:22:00.143Z,4.70
2023-02-06T17:24:04.346Z,2.70
2023-02-06T17:26:07.116Z,2.80
2023-02-06T17:28:11.133Z,3.00
2023-02-06T17:30:15.097Z,2.40
2023-02-06T17:32:21.977Z,2.37
2023-02-06T17:34:25.558Z,2.40
2023-02-06T17:36:32.373Z,2.90
2023-02-06T17:38:35.583Z,2.40
2023-02-06T17:40:40.333Z,2.27
2023-02-06T17:42:43.636Z,2.43
2023-02-06T17:44:46.621Z,1.80
2023-02-06T17:46:50.079Z,2.33
2023-02-06T17:48:52.815Z,2.20
2023-02-06T17:50:55.560Z,2.37
2023-02-06T17:53:00.358Z,2.40
2023-02-06T17:55:07.113Z,2.10
2023-02-06T17:57:09.915Z,2.77
2023-02-06T17:59:12.926Z,2.00
2023-02-06T18:01:16.684Z,2.50
2023-02-06T18:03:20.437Z,2.40
2023-02-06T18:05:23.517Z,2.20
2023-02-06T18:07:26.577Z,2.00
2023-02-06T18:09:30.612Z,1.70
2023-02-06T18:11:35.771Z,2.23
2023-02-06T18:13:38.903Z,1.90
2023-02-06T18:15:44.222Z,2.00
2023-02-06T18:17:47.392Z,1.80
2023-02-06T18:19:50.617Z,1.80
2023-02-06T18:21:53.400Z,2.03
2023-02-06T18:23:56.157Z,2.27
2023-02-06T18:26:03.398Z,2.17
2023-02-06T18:28:06.448Z,1.90
2023-02-06T18:30:10.922Z,1.70
2023-02-06T18:32:13.731Z,1.60
2023-02-06T18:34:25.583Z,1.90
2023-02-06T18:36:28.353Z,1.80
2023-02-06T18:38:31.360Z,1.43
2023-02-06T18:40:34.788Z,1.80
2023-02-06T18:42:50.456Z,1.77
2023-02-06T18:44:53.194Z,1.97
2023-02-06T18:46:55.998Z,1.87
2023-02-06T18:48:58.893Z,2.20
2023-02-06T18:51:01.984Z,2.10
2023-02-06T18:53:04.763Z,2.37
2023-02-06T18:55:08.631Z,1.97
2023-02-06T18:57:11.335Z,2.53
2023-02-06T18:59:18.160Z,2.40
2023-02-06T19:01:23.583Z,2.57
2023-02-06T19:03:26.404Z,2.00
2023-02-06T19:05:30.767Z,2.60
2023-02-06T19:07:33.835Z,2.00
2023-02-06T19:09:36.585Z,2.10
2023-02-06T19:11:39.705Z,2.00
2023-02-06T19:13:43.127Z,2.53
2023-02-06T19:15:47.148Z,2.30
2023-02-06T19:17:50.966Z,2.23
2023-02-06T19:19:53.997Z,1.90
2023-02-06T19:21:57.778Z,2.47
2023-02-06T19:24:01.099Z,2.33
2023-02-06T19:26:06.545Z,2.30
2023-02-06T19:28:09.589Z,2.57
2023-02-06T19:30:14.253Z,2.03
2023-02-06T19:32:18.295Z,2.30
2023-02-06T19:34:21.011Z,2.40
2023-02-06T19:36:24.570Z,2.30
2023-02-06T19:38:27.318Z,2.40
2023-02-06T19:40:30.049Z,2.60
2023-02-06T19:42:35.840Z,2.47
2023-02-06T19:44:38.982Z,2.70
2023-02-06T19:46:42.864Z,2.40
2023-02-06T19:48:47.396Z,2.50
2023-02-06T19:50:50.353Z,2.27
2023-02-06T19:52:53.552Z,2.50
2023-02-06T19:54:56.382Z,2.43
2023-02-06T19:57:00.564Z,2.50
2023-02-06T19:59:04.658Z,2.67
2023-02-06T20:01:09.102Z,2.17
2023-02-06T20:03:11.983Z,2.30
2023-02-06T20:05:16.196Z,2.50
2023-02-06T20:07:18.904Z,2.80
2023-02-06T20:09:22.741Z,2.43
2023-02-06T20:11:25.838Z,3.00
2023-02-06T20:13:29.057Z,2.37
2023-02-06T20:15:32.186Z,2.23
2023-02-06T20:17:35.603Z,2.33
2023-02-06T20:19:38.328Z,2.60
2023-02-06T20:21:43.707Z,2.43
2023-02-06T20:23:48.710Z,2.40
2023-02-06T20:25:51.735Z,2.30
2023-02-06T20:27:54.479Z,2.67
2023-02-06T20:29:57.212Z,2.23
2023-02-06T20:32:00.740Z,2.80
2023-02-06T20:34:04.181Z,2.77
2023-02-06T20:36:07.972Z,2.33
2023-02-06T20:38:12.029Z,2.83
2023-02-06T20:40:14.803Z,2.33
2023-02-06T20:42:19.339Z,3.07
2023-02-06T20:44:22.477Z,2.57
2023-02-06T20:46:25.413Z,2.30
2023-02-06T20:48:28.298Z,2.70
2023-02-06T20:50:31.457Z,2.47
2023-02-06T20:52:34.149Z,2.47
2023-02-06T20:54:38.146Z,2.40
2023-02-06T20:56:40.956Z,3.20
2023-02-06T20:58:44.235Z,2.40
2023-02-06T21:00:47.229Z,3.00
2023-02-06T21:02:52.023Z,2.60
2023-02-06T21:04:55.693Z,2.23
2023-02-06T21:06:58.860Z,2.70
2023-02-06T21:09:01.775Z,2.80
2023-02-06T21:11:06.114Z,2.23
2023-02-06T21:13:08.790Z,2.53
2023-02-06T21:15:13.023Z,2.40
2023-02-06T21:17:15.984Z,2.60
2023-02-06T21:19:19.714Z,2.07
2023-02-06T21:21:22.524Z,2.60
2023-02-06T21:23:25.684Z,2.30
2023-02-06T21:25:28.469Z,2.60
2023-02-06T21:27:32.897Z,2.63
2023-02-06T21:29:42.651Z,2.23
2023-02-06T21:31:46.273Z,2.10
2023-02-06T21:33:49.619Z,2.40
2023-02-06T21:35:52.609Z,2.10
2023-02-06T21:37:56.368Z,2.50
2023-02-06T21:39:59.172Z,2.27
2023-02-06T21:42:01.864Z,2.10
2023-02-06T21:44:06.429Z,2.30
2023-02-06T21:46:11.165Z,2.33
2023-02-06T21:48:13.897Z,2.03
2023-02-06T21:50:16.661Z,2.20
2023-02-06T21:52:19.684Z,2.20
2023-02-06T21:54:22.428Z,2.23
2023-02-06T21:56:26.227Z,2.37
2023-02-06T21:58:28.899Z,2.43
2023-02-06T22:00:33.356Z,2.77
2023-02-06T22:02:36.095Z,2.77
2023-02-06T22:04:38.895Z,2.20
2023-02-06T22:06:41.760Z,2.20
2023-02-06T22:08:48.000Z,2.30
2023-02-06T22:10:50.779Z,2.47
2023-02-06T22:12:53.494Z,2.63
2023-02-06T22:14:56.262Z,2.50
2023-02-06T22:17:00.774Z,2.63
2023-02-06T22:19:03.553Z,2.53
2023-02-06T22:21:07.041Z,2.50
2023-02-06T22:23:09.814Z,2.47
2023-02-06T22:25:13.052Z,2.80
2023-02-06T22:27:15.795Z,2.50
2023-02-06T22:29:18.812Z,2.30
2023-02-06T22:31:23.197Z,2.83
2023-02-06T22:33:27.697Z,2.73
2023-02-06T22:35:30.540Z,2.70
2023-02-06T22:37:33.725Z,2.30
2023-02-06T22:39:36.506Z,2.40
2023-02-06T22:41:39.780Z,2.00
2023-02-06T22:43:42.712Z,2.70
2023-02-06T22:45:45.458Z,2.50
2023-02-06T22:47:48.342Z,2.37
2023-02-06T22:49:53.443Z,2.67
2023-02-06T22:51:57.895Z,2.40
2023-02-06T22:54:00.551Z,2.53
2023-02-06T22:56:16.707Z,2.57
2023-02-06T22:58:19.505Z,2.60
2023-02-06T23:00:22.298Z,2.57
2023-02-06T23:02:25.016Z,2.43
2023-02-06T23:04:29.226Z,2.63
2023-02-06T23:06:33.618Z,2.63
2023-02-06T23:08:36.846Z,2.57
2023-02-06T23:10:39.536Z,2.63
2023-02-06T23:12:42.715Z,2.60
2023-02-06T23:14:45.430Z,2.20
2023-02-06T23:16:48.412Z,2.90
2023-02-06T23:18:51.151Z,2.17
2023-02-06T23:20:55.067Z,2.47
2023-02-06T23:22:59.069Z,2.50
2023-02-06T23:25:01.808Z,2.50
2023-02-06T23:27:04.802Z,2.30
2023-02-06T23:29:08.548Z,3.10
2023-02-06T23:31:11.460Z,2.73
2023-02-06T23:33:14.246Z,2.30
2023-02-06T23:35:17.082Z,2.60
2023-02-06T23:37:19.800Z,2.63
2023-02-06T23:39:23.872Z,2.53
2023-02-06T23:41:28.903Z,2.80
2023-02-06T23:43:31.606Z,3.00
2023-02-06T23:45:34.941Z,3.10
2023-02-06T23:47:38.134Z,2.80
2023-02-06T23:49:40.870Z,2.93
2023-02-06T23:51:43.595Z,2.70
2023-02-06T23:53:46.706Z,3.20
2023-02-06T23:55:50.756Z,2.50
2023-02-06T23:57:53.470Z,2.40
2023-02-06T23:59:56.188Z,2.70
